Time;durP1;ratioP1;P1;durP2;ratioP2;P2;SDS_P1;SDS_P2;PMS_P1;PMS_P2;Temp;Humidity;BMP_temperature;BMP_pressure;BME280_temperature;BME280_humidity;BME280_pressure;Samples;Min_cycle;Max_cycle;Signal;HPM_P1;HPM_P2
2022/04/27 00:01:12;;;;;;;28.47;16.55;;;;;;;20.54;51.09;98831.20;1579703;90;25774;-82
2022/04/27 00:03:38;;;;;;;27.70;17.17;;;;;;;20.53;51.14;98833.79;1607800;89;27024;-82
2022/04/27 00:06:04;;;;;;;27.32;16.05;;;;;;;20.52;51.18;98829.41;1608750;88;25642;-81
2022/04/27 00:08:31;;;;;;;27.98;16.93;;;;;;;20.51;51.22;98831.96;1608466;88;28281;-82
2022/04/27 00:10:57;;;;;;;30.15;17.40;;;;;;;20.50;51.27;98832.57;1608286;88;25893;-83
2022/04/27 00:13:23;;;;;;;30.20;16.85;;;;;;;20.49;51.33;98835.73;1604680;88;25762;-86
2022/04/27 00:15:48;;;;;;;26.57;15.72;;;;;;;20.49;51.35;98833.73;1603419;89;26864;-85
2022/04/27 00:18:14;;;;;;;27.52;16.75;;;;;;;20.46;51.37;98828.92;1603385;89;25720;-82
2022/04/27 00:20:41;;;;;;;28.23;16.65;;;;;;;20.47;51.40;98833.33;1603361;89;27471;-82
2022/04/27 00:23:07;;;;;;;28.42;15.80;;;;;;;20.46;51.41;98834.48;1603344;89;25707;-85
2022/04/27 00:25:32;;;;;;;27.55;16.37;;;;;;;20.44;51.46;98835.47;1603433;89;25629;-83
2022/04/27 00:27:58;;;;;;;27.15;16.12;;;;;;;20.43;51.49;98840.22;1603391;89;26174;-84
2022/04/27 00:30:24;;;;;;;27.67;15.93;;;;;;;20.43;51.54;98835.23;1603530;89;25625;-82
2022/04/27 00:32:50;;;;;;;26.75;15.65;;;;;;;20.42;51.54;98831.67;1603347;89;27305;-82
2022/04/27 00:35:16;;;;;;;25.88;15.85;;;;;;;20.40;51.57;98829.84;1603283;89;25672;-82
2022/04/27 00:37:42;;;;;;;26.73;15.78;;;;;;;20.39;51.60;98831.03;1603394;89;25617;-85
2022/04/27 00:40:09;;;;;;;28.70;16.75;;;;;;;20.38;51.63;98828.63;1603305;89;26011;-82
2022/04/27 00:42:36;;;;;;;29.02;16.37;;;;;;;20.37;51.67;98829.78;1603452;89;25721;-82
2022/04/27 00:45:03;;;;;;;27.13;16.40;;;;;;;20.37;51.67;98831.17;1603113;89;27443;-84
2022/04/27 00:47:30;;;;;;;24.92;14.93;;;;;;;20.36;51.68;98834.56;1603058;89;25434;-83
2022/04/27 00:50:02;;;;;;;25.80;15.13;;;;;;;20.35;51.71;98833.55;1603103;89;25688;-82
2022/04/27 00:52:30;;;;;;;26.15;16.00;;;;;;;20.34;51.74;98831.92;1603027;89;25662;-88
2022/04/27 00:54:57;;;;;;;23.45;14.63;;;;;;;20.33;51.75;98826.97;1603120;89;25757;-86
2022/04/27 00:57:24;;;;;;;26.93;14.85;;;;;;;20.33;51.75;98833.92;1603264;89;27392;-83
2022/04/27 00:59:52;;;;;;;26.65;15.68;;;;;;;20.31;51.77;98826.53;1603265;89;25680;-82
2022/04/27 01:02:19;;;;;;;26.00;16.12;;;;;;;20.31;51.79;98830.13;1603316;89;25671;-83
2022/04/27 01:04:45;;;;;;;29.90;16.40;;;;;;;20.30;51.82;98830.50;1603313;89;26010;-83
2022/04/27 01:07:12;;;;;;;26.65;15.90;;;;;;;20.29;51.83;98831.08;1603437;89;25630;-83
2022/04/27 01:09:39;;;;;;;29.27;15.88;;;;;;;20.28;51.85;98825.89;1603405;89;28110;-86
2022/04/27 01:12:06;;;;;;;27.65;15.48;;;;;;;20.27;51.86;98822.30;1603191;88;25703;-84
2022/04/27 01:14:43;;;;;;;27.67;15.50;;;;;;;20.26;51.88;98826.87;1603263;89;25691;-83
2022/04/27 01:17:09;;;;;;;25.60;15.63;;;;;;;20.25;51.91;98829.42;1603196;89;26005;-86
2022/04/27 01:19:35;;;;;;;24.02;14.83;;;;;;;20.25;51.92;98836.38;1603331;89;25694;-82
2022/04/27 01:22:02;;;;;;;25.50;14.93;;;;;;;20.25;51.94;98829.42;1603404;89;28256;-83
2022/04/27 01:24:29;;;;;;;26.87;15.28;;;;;;;20.23;51.96;98830.41;1603200;89;26155;-84
2022/04/27 01:26:55;;;;;;;26.70;15.72;;;;;;;20.21;51.98;98827.19;1602978;89;25935;-85
2022/04/27 01:29:22;;;;;;;26.93;15.75;;;;;;;20.21;52.00;98832.75;1603335;89;26033;-84
2022/04/27 01:31:50;;;;;;;24.43;15.18;;;;;;;20.18;52.00;98835.09;1603055;89;25715;-83
2022/04/27 01:34:17;;;;;;;26.07;15.40;;;;;;;20.18;52.04;98832.31;1603295;89;27464;-82
2022/04/27 01:36:43;;;;;;;25.43;15.05;;;;;;;20.17;52.07;98831.29;1603260;89;25697;-86
2022/04/27 01:39:09;;;;;;;23.42;14.38;;;;;;;20.16;52.07;98833.29;1603388;89;25662;-85
2022/04/27 01:41:36;;;;;;;27.32;15.30;;;;;;;20.16;52.09;98838.86;1603334;89;25755;-83
2022/04/27 01:44:04;;;;;;;24.87;15.20;;;;;;;20.16;52.07;98840.25;1603099;89;25463;-85
2022/04/27 01:46:31;;;;;;;27.40;15.88;;;;;;;20.15;52.08;98838.62;1603275;89;27595;-83
2022/04/27 01:48:57;;;;;;;25.95;15.25;;;;;;;20.14;52.14;98841.20;1603191;89;25900;-82
2022/04/27 01:54:17;;;;;;;25.72;14.68;;;;;;;20.12;52.16;98839.98;1603000;89;25655;-88
2022/04/27 01:56:50;;;;;;;27.05;14.63;;;;;;;20.11;52.17;98844.73;1603159;89;25700;-83
2022/04/27 01:59:17;;;;;;;24.70;14.70;;;;;;;20.10;52.18;98839.54;1603395;89;27468;-86
2022/04/27 02:01:44;;;;;;;25.10;14.95;;;;;;;20.08;52.19;98846.86;1603042;89;26034;-83
2022/04/27 02:04:10;;;;;;;27.30;15.70;;;;;;;20.07;52.21;98849.44;1603392;89;25459;-82
2022/04/27 02:06:36;;;;;;;26.55;15.32;;;;;;;20.09;52.22;98851.24;1603350;89;26891;-82
2022/04/27 02:09:07;;;;;;;24.37;15.48;;;;;;;20.08;52.20;98851.04;1603322;89;25678;-84
2022/04/27 02:11:33;;;;;;;;;;;;;;;20.08;52.23;98849.65;1605851;89;27563;-83
2022/04/27 02:14:00;;;;;;;25.32;15.30;;;;;;;20.07;52.23;98843.88;1613839;88;25771;-83
2022/04/27 02:16:28;;;;;;;25.17;15.20;;;;;;;20.06;52.23;98849.20;1619065;88;25464;-88
2022/04/27 02:18:55;;;;;;;26.62;15.65;;;;;;;20.04;52.26;98851.58;1619029;88;26015;-82
2022/04/27 02:21:22;;;;;;;25.60;14.18;;;;;;;20.03;52.28;98852.73;1619098;88;25439;-85
2022/04/27 02:23:55;;;;;;;23.52;14.70;;;;;;;20.03;52.30;98844.39;1619024;88;28268;-82
2022/04/27 02:26:17;;;;;;;24.10;14.78;;;;;;;20.00;52.29;98843.14;1617741;88;25716;-82
2022/04/27 02:28:43;;;;;;;26.77;14.98;;;;;;;19.99;52.34;98844.32;1618909;88;25679;-85
2022/04/27 02:31:09;;;;;;;25.55;14.98;;;;;;;19.99;52.34;98849.88;1619040;88;26829;-86
2022/04/27 02:33:35;;;;;;;25.15;15.25;;;;;;;19.98;52.36;98849.68;1619093;88;25789;-82
2022/04/27 02:36:01;;;;;;;25.92;14.80;;;;;;;19.98;52.38;98851.65;1619150;88;27621;-82
2022/04/27 02:38:27;;;;;;;24.98;14.75;;;;;;;19.98;52.38;98853.04;1618981;88;25436;-82
2022/04/27 02:40:56;;;;;;;25.27;14.60;;;;;;;19.98;52.39;98853.85;1619084;88;25481;-82
2022/04/27 02:43:22;;;;;;;26.07;15.68;;;;;;;19.96;52.38;98850.63;1618983;88;26068;-82
2022/04/27 02:45:49;;;;;;;28.23;15.45;;;;;;;19.95;52.40;98850.42;1619244;88;25722;-83
2022/04/27 02:48:16;;;;;;;22.13;14.20;;;;;;;19.94;52.41;98851.00;1619159;88;28173;-82
2022/04/27 02:53:27;;;;;;;23.45;13.65;;;;;;;19.94;52.45;98857.14;1618883;88;25662;-82
2022/04/27 02:55:53;;;;;;;23.42;14.20;;;;;;;19.93;52.43;98854.97;1619033;88;26994;-82
2022/04/27 02:58:19;;;;;;;23.70;14.13;;;;;;;19.93;52.48;98848.59;1619074;88;25805;-82
2022/04/27 03:00:45;;;;;;;25.60;14.70;;;;;;;19.93;52.42;98856.36;1619290;88;28060;-82
2022/04/27 03:03:12;;;;;;;24.75;14.98;;;;;;;19.93;52.46;98854.16;1619111;88;25768;-82
2022/04/27 03:05:38;;;;;;;24.25;14.20;;;;;;;19.93;52.47;98855.55;1619068;88;25678;-82
2022/04/27 03:08:05;;;;;;;24.82;14.55;;;;;;;19.92;52.44;98854.73;1619099;88;25995;-82
2022/04/27 03:10:31;;;;;;;21.45;13.88;;;;;;;19.92;52.44;98857.52;1619169;88;25641;-86
2022/04/27 03:12:59;;;;;;;26.27;14.70;;;;;;;19.93;52.48;98862.50;1617213;88;28193;-82
2022/04/27 03:15:25;;;;;;;26.25;15.13;;;;;;;19.91;52.47;98865.66;1602939;89;25927;-82
2022/04/27 03:18:36;;;;;;;24.40;14.87;;;;;;;19.90;52.49;98871.01;1603191;89;25196;-82
2022/04/27 03:20:19;;;;;;;21.93;14.33;;;;;;;19.89;52.48;98863.03;1603902;88;25630;-83
2022/04/27 03:22:45;;;;;;;23.27;14.53;;;;;;;19.88;52.51;98869.75;1604592;88;25700;-83
2022/04/27 03:25:11;;;;;;;23.38;14.03;;;;;;;19.88;52.52;98873.34;1603219;89;27475;-83
2022/04/27 03:27:36;;;;;;;22.15;14.20;;;;;;;19.89;52.50;98870.77;1603232;89;25732;-87
2022/04/27 03:30:03;;;;;;;26.02;14.75;;;;;;;19.89;52.50;98872.77;1603295;89;25480;-83
2022/04/27 03:32:29;;;;;;;22.75;13.80;;;;;;;19.87;52.53;98874.53;1603279;89;25990;-88
2022/04/27 03:34:55;;;;;;;22.95;13.75;;;;;;;19.87;52.52;98877.89;1603215;89;25740;-89
2022/04/27 03:37:21;;;;;;;23.95;13.55;;;;;;;19.84;52.55;98874.46;1603169;89;27406;-88
2022/04/27 03:39:46;;;;;;;22.87;13.90;;;;;;;19.83;52.58;98872.25;1603241;89;25831;-88
2022/04/27 03:42:12;;;;;;;23.75;14.55;;;;;;;19.83;52.59;98879.81;1603336;89;25550;-83
2022/04/27 03:44:38;;;;;;;24.00;14.68;;;;;;;19.81;52.59;98878.19;1603348;89;26069;-83
2022/04/27 03:47:08;;;;;;;24.80;14.70;;;;;;;19.81;52.63;98875.41;1603330;89;25632;-85
2022/04/27 03:49:38;;;;;;;;;;;;;;;19.83;52.63;98879.81;1605671;89;27408;-86
2022/04/27 03:52:08;;;;;;;24.02;14.13;;;;;;;19.81;52.58;98877.41;1603140;89;25796;-82
2022/04/27 03:54:37;;;;;;;24.97;15.10;;;;;;;19.80;52.65;98874.39;1603443;89;25454;-82
2022/04/27 03:57:03;;;;;;;24.15;14.33;;;;;;;19.79;52.67;98875.00;1603339;89;26003;-82
2022/04/27 03:59:29;;;;;;;23.57;14.55;;;;;;;19.80;52.66;98887.72;1603363;89;25693;-82
2022/04/27 04:01:55;;;;;;;21.42;13.35;;;;;;;19.79;52.71;98883.34;1603362;89;28204;-83
2022/04/27 04:04:21;;;;;;;23.27;14.30;;;;;;;19.81;52.66;98891.31;1603356;89;25743;-84
2022/04/27 04:06:48;;;;;;;22.40;13.75;;;;;;;19.79;52.68;98900.59;1603490;89;25640;-82
2022/04/27 04:09:14;;;;;;;23.22;13.98;;;;;;;19.78;52.68;98899.00;1603043;89;26134;-87
2022/04/27 04:11:39;;;;;;;21.35;13.85;;;;;;;19.77;52.69;98895.41;1603502;89;25512;-87
2022/04/27 04:14:05;;;;;;;23.80;14.00;;;;;;;19.79;52.71;98904.19;1603210;88;27457;-84
2022/04/27 04:16:31;;;;;;;22.55;13.93;;;;;;;19.78;52.69;98906.73;1603280;89;25844;-85
2022/04/27 04:18:57;;;;;;;22.58;13.78;;;;;;;19.80;52.70;98911.35;1603453;89;25676;-82
2022/04/27 04:21:24;;;;;;;24.72;14.90;;;;;;;19.79;52.71;98909.75;1603317;89;26843;-82
2022/04/27 04:23:50;;;;;;;23.35;13.85;;;;;;;19.79;52.69;98914.50;1603119;89;25620;-87
2022/04/27 04:29:00;;;;;;;24.32;14.78;;;;;;;19.77;52.73;98919.04;1602957;89;25454;-88
2022/04/27 04:31:26;;;;;;;23.80;13.98;;;;;;;19.74;52.77;98922.56;1603374;89;25665;-87
2022/04/27 04:33:52;;;;;;;23.47;14.28;;;;;;;19.72;52.81;98919.94;1603357;89;26033;-89
2022/04/27 04:36:18;;;;;;;21.70;14.03;;;;;;;19.74;52.83;98925.92;1603486;89;25466;-86
2022/04/27 04:38:44;;;;;;;22.85;13.78;;;;;;;19.73;52.82;98922.93;1603324;89;27488;-88
2022/04/27 04:41:09;;;;;;;23.95;14.35;;;;;;;19.74;52.80;98921.17;1603343;89;25767;-88
2022/04/27 04:43:35;;;;;;;23.00;13.83;;;;;;;19.76;52.79;98924.97;1603342;89;25732;-88
2022/04/27 04:46:01;;;;;;;23.65;14.40;;;;;;;19.76;52.79;98927.75;1603277;89;26019;-87
2022/04/27 04:48:27;;;;;;;23.10;14.25;;;;;;;19.76;52.82;98932.73;1603410;89;25205;-86
2022/04/27 04:50:53;;;;;;;23.85;14.47;;;;;;;19.76;52.83;98938.88;1603317;89;27437;-87
2022/04/27 04:53:20;;;;;;;22.27;14.05;;;;;;;19.75;52.85;98935.88;1603411;89;25631;-86
2022/04/27 04:55:46;;;;;;;22.52;13.78;;;;;;;19.75;52.86;98931.72;1603213;89;25727;-88
2022/04/27 04:58:12;;;;;;;26.35;15.03;;;;;;;19.75;52.98;98937.27;1603453;89;26082;-88
2022/04/27 05:00:37;;;;;;;26.55;15.65;;;;;;;19.76;52.74;98941.08;1603259;89;25522;-88
2022/04/27 05:03:04;;;;;;;24.75;15.38;;;;;;;19.77;52.58;98950.20;1603414;88;27481;-89
2022/04/27 05:05:30;;;;;;;25.08;16.00;;;;;;;19.75;52.38;98949.78;1603030;89;25844;-82
2022/04/27 05:07:56;;;;;;;25.37;15.70;;;;;;;19.75;52.30;98951.17;1603300;89;25812;-82
2022/04/27 05:10:22;;;;;;;25.57;15.95;;;;;;;19.74;52.22;98946.77;1603396;89;26162;-84
2022/04/27 05:12:48;;;;;;;29.70;17.12;;;;;;;19.75;52.24;98957.52;1603394;89;25482;-82
2022/04/27 05:15:14;;;;;;;23.98;15.80;;;;;;;19.76;52.07;98962.51;1603127;89;27352;-84
2022/04/27 05:17:40;;;;;;;25.77;15.93;;;;;;;19.75;52.09;98964.47;1603265;89;25767;-82
2022/04/27 05:20:07;;;;;;;24.57;15.88;;;;;;;19.75;52.03;98960.91;1603417;89;25508;-82
2022/04/27 05:22:38;;;;;;;26.30;16.42;;;;;;;19.76;52.02;98965.28;1603361;89;26015;-84
2022/04/27 05:25:06;;;;;;;;;;;;;;;19.74;51.99;98961.48;1605522;89;25807;-82
2022/04/27 05:27:32;;;;;;;23.70;15.65;;;;;;;19.74;52.07;98962.88;1603263;89;28209;-83
2022/04/27 05:32:44;;;;;;;24.25;15.55;;;;;;;19.73;52.00;98973.79;1603086;89;25474;-82
2022/04/27 05:35:12;;;;;;;23.45;15.43;;;;;;;19.73;51.92;98969.61;1603461;89;25971;-84
2022/04/27 05:37:39;;;;;;;23.77;15.15;;;;;;;19.73;51.90;98964.05;1603243;89;25499;-82
2022/04/27 05:40:07;;;;;;;25.55;15.70;;;;;;;19.74;52.00;98968.44;1603256;89;26839;-82
2022/04/27 05:42:36;;;;;;;25.12;16.17;;;;;;;19.73;51.94;98967.41;1603393;89;25669;-83
2022/04/27 05:45:04;;;;;;;25.23;15.55;;;;;;;19.73;51.94;98964.63;1603171;89;25720;-82
2022/04/27 05:47:30;;;;;;;25.55;16.25;;;;;;;19.74;51.90;98966.23;1603383;89;26241;-82
2022/04/27 05:49:56;;;;;;;27.62;16.20;;;;;;;19.76;51.80;98967.48;1603486;88;25696;-83
2022/04/27 05:52:23;;;;;;;24.07;15.60;;;;;;;19.79;51.76;98972.89;1603279;89;27485;-82
2022/04/27 05:54:49;;;;;;;24.90;15.60;;;;;;;19.82;51.74;98972.16;1603322;89;25783;-82
2022/04/27 05:57:15;;;;;;;23.10;15.18;;;;;;;19.87;51.77;98975.22;1603285;89;25713;-82
2022/04/27 05:59:43;;;;;;;27.02;16.37;;;;;;;19.88;51.78;98979.02;1603236;89;26008;-82
2022/04/27 06:02:10;;;;;;;28.00;15.98;;;;;;;19.91;51.67;98978.86;1603145;89;25827;-82
2022/04/27 06:04:36;;;;;;;29.27;15.90;;;;;;;19.96;51.65;98983.31;1603272;89;27468;-83
2022/04/27 06:07:03;;;;;;;25.35;16.07;;;;;;;19.99;51.69;98986.17;1603311;88;25735;-82
2022/04/27 06:09:29;;;;;;;24.50;15.20;;;;;;;20.02;51.60;98985.47;1603270;89;25759;-84
2022/04/27 06:11:55;;;;;;;28.15;16.77;;;;;;;20.08;51.58;98995.69;1603423;89;26050;-82
2022/04/27 06:14:20;;;;;;;25.82;15.32;;;;;;;20.12;51.57;98994.37;1603117;87;25759;-83
2022/04/27 06:16:47;;;;;;;24.32;14.85;;;;;;;20.16;51.62;98991.06;1603346;89;27488;-85
2022/04/27 06:19:13;;;;;;;24.82;15.65;;;;;;;20.19;51.69;99002.84;1603247;89;25640;-89
2022/04/27 06:21:39;;;;;;;25.85;15.65;;;;;;;20.23;51.72;98997.34;1603331;89;25506;-89
2022/04/27 06:24:06;;;;;;;26.50;15.72;;;;;;;20.26;51.81;99004.95;1603291;89;26074;-88
2022/04/27 06:26:33;;;;;;;24.30;15.23;;;;;;;20.30;51.84;99002.42;1603107;89;25787;-88
2022/04/27 06:29:01;;;;;;;24.52;15.48;;;;;;;20.34;51.91;99005.86;1603028;89;27510;-82
2022/04/27 06:31:27;;;;;;;24.47;15.48;;;;;;;20.37;52.01;99009.28;1603259;89;25758;-82
2022/04/27 06:33:53;;;;;;;25.37;15.38;;;;;;;20.38;52.06;99006.74;1603216;89;25635;-82
2022/04/27 06:36:20;;;;;;;26.07;15.40;;;;;;;20.41;52.14;99006.00;1603208;89;26120;-83
2022/04/27 06:38:46;;;;;;;24.72;14.87;;;;;;;20.44;52.23;99013.00;1603335;89;25608;-83
2022/04/27 06:41:12;;;;;;;24.47;14.87;;;;;;;20.46;52.35;99011.23;1603356;89;27495;-82
2022/04/27 06:43:38;;;;;;;24.12;14.55;;;;;;;20.49;52.48;99004.14;1603288;89;25619;-82
2022/04/27 06:46:04;;;;;;;22.22;15.10;;;;;;;20.52;52.50;99007.56;1603353;89;25623;-87
2022/04/27 06:48:32;;;;;;;23.20;14.55;;;;;;;20.56;52.51;99010.59;1603326;89;26675;-85
2022/04/27 06:50:59;;;;;;;23.50;13.93;;;;;;;20.61;52.62;99013.66;1602942;88;25786;-84
2022/04/27 06:53:25;;;;;;;21.55;14.33;;;;;;;20.64;52.60;99010.13;1603347;89;27456;-84
2022/04/27 06:55:52;;;;;;;22.32;13.48;;;;;;;20.68;52.64;99011.58;1603144;89;25718;-87
2022/04/27 06:58:18;;;;;;;22.95;14.50;;;;;;;20.72;52.65;99015.83;1603171;89;25738;-87
2022/04/27 07:00:44;;;;;;;25.50;14.68;;;;;;;20.75;52.75;99018.66;1603345;89;26847;-87
2022/04/27 07:03:11;;;;;;;23.18;14.35;;;;;;;20.78;52.68;99017.12;1603257;89;25703;-87
2022/04/27 07:05:37;;;;;;;26.87;14.58;;;;;;;20.80;52.79;99022.52;1603272;89;26854;-88
2022/04/27 07:08:06;;;;;;;25.85;14.18;;;;;;;20.85;52.75;99026.16;1603231;89;25723;-83
2022/04/27 07:10:38;;;;;;;25.88;15.00;;;;;;;20.87;52.81;99015.45;1603335;89;25659;-88
2022/04/27 07:13:06;;;;;;;26.10;14.60;;;;;;;20.89;52.80;99025.03;1603098;89;26824;-87
2022/04/27 07:15:33;;;;;;;22.65;13.90;;;;;;;20.93;52.88;99027.30;1603047;88;25706;-87
2022/04/27 07:18:00;;;;;;;24.77;14.15;;;;;;;20.97;52.88;99020.98;1603278;89;27429;-88
2022/04/27 07:20:26;;;;;;;25.20;13.68;;;;;;;20.98;52.86;99026.18;1603092;89;25911;-87
2022/04/27 07:22:52;;;;;;;21.48;13.78;;;;;;;21.01;52.87;99022.64;1603221;89;25808;-88
2022/04/27 07:25:19;;;;;;;23.95;13.72;;;;;;;21.05;52.87;99023.52;1603325;89;26790;-89
2022/04/27 07:27:46;;;;;;;23.00;13.20;;;;;;;21.09;52.85;99029.70;1603299;89;25752;-88
2022/04/27 07:30:13;;;;;;;24.15;13.50;;;;;;;21.12;52.87;99031.73;1603582;89;27392;-83
2022/04/27 07:32:39;;;;;;;25.00;13.85;;;;;;;21.15;52.85;99040.16;1602949;89;25655;-87
2022/04/27 07:35:07;;;;;;;21.95;13.15;;;;;;;21.17;52.87;99035.02;1603416;89;25709;-86
2022/04/27 07:37:38;;;;;;;21.93;13.22;;;;;;;21.19;52.83;99039.61;1603397;89;26015;-88
2022/04/27 07:40:12;;;;;;;20.10;12.47;;;;;;;21.22;52.82;99044.23;1603558;89;25654;-84
2022/04/27 07:42:39;;;;;;;21.15;12.93;;;;;;;21.23;52.79;99043.04;1603444;89;28213;-88
2022/04/27 07:45:07;;;;;;;19.40;12.53;;;;;;;21.26;52.75;99048.67;1603006;89;25696;-88
2022/04/27 07:47:46;;;;;;;22.05;12.13;;;;;;;21.27;52.78;99045.30;1603298;89;26080;-88
2022/04/27 07:50:17;;;;;;;21.02;12.75;;;;;;;21.28;52.74;99052.48;1603317;89;26065;-90
2022/04/27 07:52:44;;;;;;;21.35;12.80;;;;;;;21.28;52.65;99049.11;1603493;89;25763;-84
2022/04/27 07:55:11;;;;;;;19.35;12.18;;;;;;;21.30;52.67;99053.70;1603430;89;27409;-83
2022/04/27 07:57:38;;;;;;;22.13;11.75;;;;;;;21.31;52.63;99053.93;1603238;89;25736;-83
2022/04/27 08:00:09;;;;;;;19.00;12.18;;;;;;;21.34;52.58;99049.58;1603550;89;25873;-82
2022/04/27 08:02:36;;;;;;;20.20;11.43;;;;;;;21.37;52.55;99059.97;1603304;89;26872;-84
2022/04/27 08:05:02;;;;;;;19.10;11.60;;;;;;;21.38;52.50;99053.20;1603463;89;25448;-83
2022/04/27 08:07:38;;;;;;;16.65;11.18;;;;;;;21.39;52.46;99057.59;1603463;89;27395;-84
2022/04/27 08:10:13;;;;;;;17.30;11.03;;;;;;;21.38;52.27;99057.39;1603367;89;25795;-82
2022/04/27 08:12:43;;;;;;;15.93;10.88;;;;;;;21.38;52.26;99055.18;1603434;89;25699;-82
2022/04/27 08:15:10;;;;;;;18.32;11.38;;;;;;;21.37;52.01;99061.95;1602984;88;25623;-83
2022/04/27 08:17:52;;;;;;;18.30;11.93;;;;;;;21.38;51.89;99062.96;1603425;89;25669;-82
2022/04/27 08:23:13;;;;;;;19.52;10.85;;;;;;;21.38;51.67;99058.78;1603033;89;25783;-82
2022/04/27 08:25:40;;;;;;;17.70;10.95;;;;;;;21.37;51.52;99068.34;1603424;89;25712;-82
2022/04/27 08:28:08;;;;;;;16.25;10.75;;;;;;;21.35;51.48;99054.54;1603436;89;25602;-86
2022/04/27 08:30:41;;;;;;;16.42;10.78;;;;;;;21.33;51.60;99065.28;1613838;88;25747;-82
2022/04/27 08:33:08;;;;;;;16.82;10.35;;;;;;;21.30;51.66;99064.84;1629257;87;27486;-82
2022/04/27 08:35:36;;;;;;;17.57;10.48;;;;;;;21.31;51.53;99067.05;1629196;87;25719;-82
2022/04/27 08:38:04;;;;;;;15.78;9.88;;;;;;;21.34;51.51;99066.88;1629118;87;25729;-82
2022/04/27 08:40:31;;;;;;;15.60;10.25;;;;;;;21.34;51.37;99064.09;1629544;87;25997;-82
2022/04/27 08:43:01;;;;;;;16.07;9.90;;;;;;;21.37;51.36;99068.34;1629197;87;25623;-82
2022/04/27 08:45:26;;;;;;;16.62;10.45;;;;;;;21.37;51.29;99064.73;1629114;87;27153;-82
2022/04/27 08:47:52;;;;;;;16.50;9.95;;;;;;;21.40;51.22;99068.97;1629295;88;25901;-83
2022/04/27 08:50:21;;;;;;;17.42;9.93;;;;;;;21.41;51.17;99068.36;1629354;87;25525;-83
2022/04/27 08:52:50;;;;;;;17.73;9.90;;;;;;;21.40;51.01;99063.40;1629334;87;25994;-85
2022/04/27 08:55:18;;;;;;;14.70;9.73;;;;;;;21.37;51.04;99061.37;1629286;87;25501;-85
2022/04/27 08:57:45;;;;;;;13.45;9.28;;;;;;;21.35;51.01;99056.75;1629296;87;28103;-84
2022/04/27 09:00:15;;;;;;;14.50;9.35;;;;;;;21.34;50.90;99061.30;1629118;87;25727;-85
2022/04/27 09:02:42;;;;;;;12.73;8.90;;;;;;;21.33;50.82;99056.92;1629364;87;25440;-82
2022/04/27 09:05:14;;;;;;;14.90;9.50;;;;;;;21.32;50.78;99063.08;1629200;87;26053;-85
2022/04/27 09:07:47;;;;;;;14.87;9.63;;;;;;;21.30;50.68;99060.66;1629408;87;25443;-82
2022/04/27 09:10:15;;;;;;;16.10;9.70;;;;;;;21.29;50.61;99069.41;1629160;87;27362;-84
2022/04/27 09:12:48;;;;;;;13.90;8.75;;;;;;;21.28;50.62;99071.41;1628973;87;25848;-85
2022/04/27 09:15:18;;;;;;;13.88;8.93;;;;;;;21.27;50.55;99074.57;1633539;87;25396;-84
2022/04/27 09:23:32;;;;;;;12.65;8.73;;;;;;;21.22;50.41;99072.91;1645332;87;25758;-83
2022/04/27 09:26:00;;;;;;;12.20;7.92;;;;;;;21.19;50.39;99074.45;1644861;87;25725;-83
2022/04/27 09:28:32;;;;;;;11.95;8.48;;;;;;;21.20;50.39;99073.86;1645394;87;25695;-82
2022/04/27 09:31:03;;;;;;;13.80;9.13;;;;;;;21.18;50.40;99069.25;1645281;87;26123;-83
2022/04/27 09:33:38;;;;;;;15.83;8.98;;;;;;;21.18;50.37;99061.70;1645440;87;25428;-84
2022/04/27 09:36:25;;;;;;;12.73;8.80;;;;;;;21.18;50.37;99065.06;1645557;87;27426;-82
2022/04/27 09:38:54;;;;;;;12.30;7.85;;;;;;;21.17;50.33;99069.05;1645239;87;25750;-82
2022/04/27 09:41:44;;;;;;;10.93;8.20;;;;;;;21.16;50.26;99064.66;1645680;87;25702;-82
2022/04/27 09:44:33;;;;;;;13.65;8.50;;;;;;;21.13;50.32;99063.41;1645262;87;26928;-82
2022/04/27 09:47:03;;;;;;;12.88;7.87;;;;;;;21.13;50.41;99069.59;1639942;86;25643;-87
2022/04/27 09:49:28;;;;;;;12.78;8.45;;;;;;;21.10;50.45;99065.55;1661403;84;26211;-82
2022/04/27 09:51:56;;;;;;;12.60;7.97;;;;;;;21.10;50.45;99064.77;1664556;85;25662;-83
2022/04/27 09:54:25;;;;;;;11.03;7.70;;;;;;;21.11;50.38;99070.55;1664418;85;25750;-82
2022/04/27 09:56:58;;;;;;;11.03;7.50;;;;;;;21.09;50.32;99069.52;1666567;85;26004;-82
2022/04/27 09:59:31;;;;;;;12.25;7.70;;;;;;;21.09;50.33;99070.92;1664380;85;25454;-82
2022/04/27 10:02:01;;;;;;;13.05;7.80;;;;;;;21.08;50.35;99067.92;1663590;85;27629;-83
2022/04/27 10:04:29;;;;;;;11.63;7.70;;;;;;;21.09;50.35;99072.89;1668450;85;33466;-82
2022/04/27 10:07:01;;;;;;;11.12;7.60;;;;;;;21.06;50.29;99077.23;1670377;84;25697;-83
2022/04/27 10:09:31;;;;;;;13.05;8.53;;;;;;;21.04;50.37;99074.83;1670922;85;26124;-82
2022/04/27 10:12:04;;;;;;;13.10;8.50;;;;;;;21.05;50.53;99075.64;1666663;85;25665;-83
2022/04/27 10:14:31;;;;;;;11.97;7.65;;;;;;;21.03;50.56;99071.02;1666569;85;28177;-83
2022/04/27 10:16:58;;;;;;;10.90;7.67;;;;;;;21.01;50.69;99076.19;1625145;87;25797;-82
2022/04/27 10:19:25;;;;;;;11.88;7.97;;;;;;;21.00;50.75;99077.34;1638488;87;25538;-84
2022/04/27 10:21:59;;;;;;;13.50;8.13;;;;;;;21.00;50.77;99074.56;1651564;86;26655;-86
2022/04/27 10:24:41;;;;;;;11.73;7.80;;;;;;;20.99;50.77;99081.31;1638263;87;25442;-82
2022/04/27 10:27:42;;;;;;;11.83;8.03;;;;;;;20.99;50.73;99077.14;1648294;86;27494;-86
2022/04/27 10:30:11;;;;;;;11.75;7.83;;;;;;;20.97;50.77;99073.33;1651334;86;25492;-84
2022/04/27 10:32:43;;;;;;;11.08;7.70;;;;;;;20.94;51.02;99074.08;1638455;87;25494;-85
2022/04/27 10:35:29;;;;;;;11.43;7.72;;;;;;;20.92;51.01;99078.63;1651568;86;26040;-83
2022/04/27 10:37:59;;;;;;;10.80;7.55;;;;;;;20.91;50.96;99081.21;1651029;86;25675;-87
2022/04/27 10:40:42;;;;;;;12.28;7.87;;;;;;;20.92;50.92;99080.61;1638803;87;33346;-88
2022/04/27 10:43:15;;;;;;;13.30;8.18;;;;;;;20.91;50.86;99084.00;1651646;86;25745;-82
2022/04/27 10:45:45;;;;;;;11.65;7.55;;;;;;;20.91;50.84;99082.61;1638199;87;25656;-82
2022/04/27 10:48:27;;;;;;;13.15;7.95;;;;;;;20.90;50.89;99086.55;1651470;84;32903;-83
2022/04/27 10:51:03;;;;;;;11.05;7.50;;;;;;;20.91;50.96;99081.79;1649040;86;25467;-82
2022/04/27 10:53:38;;;;;;;13.05;7.37;;;;;;;20.89;51.02;99079.34;1651235;86;27449;-82
2022/04/27 10:56:26;;;;;;;9.98;6.87;;;;;;;20.88;51.04;99078.33;1635529;86;26017;-82
2022/04/27 10:58:54;;;;;;;13.32;7.47;;;;;;;20.85;51.04;99081.28;1651336;86;25911;-86
2022/04/27 11:01:30;;;;;;;10.78;7.35;;;;;;;20.85;51.05;99078.50;1638325;87;26048;-87
2022/04/27 11:04:06;;;;;;;11.20;7.22;;;;;;;20.81;51.26;99085.97;1651240;86;25476;-87
2022/04/27 11:06:58;;;;;;;10.60;7.70;;;;;;;20.80;51.22;99091.33;1638386;87;28055;-87
2022/04/27 11:09:52;;;;;;;12.03;7.95;;;;;;;20.79;51.09;99086.95;1622872;87;25708;-87
2022/04/27 11:12:20;;;;;;;12.82;7.75;;;;;;;20.80;51.05;99085.77;1584870;90;25563;-87
2022/04/27 11:14:47;;;;;;;11.40;7.65;;;;;;;20.80;51.06;99089.94;1622186;88;26005;-86
2022/04/27 11:17:48;;;;;;;9.55;7.12;;;;;;;20.78;51.15;99083.35;1579829;89;25815;-86
2022/04/27 11:20:24;;;;;;;10.80;7.08;;;;;;;20.78;51.16;99077.78;1577328;90;26056;-86
2022/04/27 11:22:51;;;;;;;11.10;7.30;;;;;;;20.77;51.09;99085.93;1585899;90;25802;-86
2022/04/27 11:25:37;;;;;;;10.48;7.15;;;;;;;20.75;51.14;99078.52;1581558;89;25799;-85
2022/04/27 11:28:06;;;;;;;11.90;7.33;;;;;;;20.74;51.11;99082.50;1581385;90;26011;-86
2022/04/27 11:30:33;;;;;;;11.45;7.42;;;;;;;20.75;51.17;99082.70;1581063;90;25510;-86
2022/04/27 11:33:01;;;;;;;12.85;7.03;;;;;;;20.75;51.26;99082.70;1581382;90;27995;-86
2022/04/27 11:35:47;;;;;;;10.88;7.17;;;;;;;20.74;51.32;99079.71;1577990;90;25897;-86
2022/04/27 11:38:21;;;;;;;12.00;7.03;;;;;;;20.74;51.35;99077.50;1593315;90;25785;-86
2022/04/27 11:40:52;;;;;;;11.68;7.58;;;;;;;20.73;51.37;99082.87;1581235;89;26227;-86
2022/04/27 11:43:32;;;;;;;12.53;7.45;;;;;;;20.73;51.32;99082.87;1581227;90;25803;-86
2022/04/27 11:45:59;;;;;;;10.32;7.08;;;;;;;20.72;51.34;99077.09;1603428;89;26003;-86